You are not logged in, Click here to log in
機場資訊:WMKK Welcome to Taiwan Airways 台灣虛擬航空
ICAO: WMKK Country: 馬來西亞
Latitude: 2.75452 Longitude: 101.704
Total Arrivals: 26 Total Departures: 28
Latest Arrival: CI5854 (WIII-WMKK)Lun. Wang Latest Departure: CI561E (WMKK-WSSS)Lun. Wang
Scenery:
METAR : WMKK 211230Z 09007KT 050V140 5000 -TSRA FEW010 FEW016CB SCT029 26/25 Q1009 TEMPO 4000 TSRA

吉隆坡國際機場KUL